createdAt,value
2022-10-31T00:01:12.665Z,74.50
2022-10-31T00:03:39.930Z,74.80
2022-10-31T00:06:07.635Z,74.80
2022-10-31T00:08:35.307Z,74.80
2022-10-31T00:11:04.135Z,74.80
2022-10-31T00:13:32.408Z,75.00
2022-10-31T00:15:59.648Z,75.00
2022-10-31T00:18:26.895Z,75.50
2022-10-31T00:21:00.374Z,75.60
2022-10-31T00:23:27.738Z,75.00
2022-10-31T00:25:55.188Z,74.70
2022-10-31T00:28:23.782Z,73.60
2022-10-31T00:30:51.102Z,73.70
2022-10-31T00:33:18.360Z,73.30
2022-10-31T00:35:50.668Z,73.70
2022-10-31T00:38:17.968Z,74.20
2022-10-31T00:40:45.210Z,74.90
2022-10-31T00:45:45.903Z,75.20
2022-10-31T00:48:13.373Z,75.20
2022-10-31T00:50:41.166Z,75.30
2022-10-31T00:53:08.463Z,75.30
2022-10-31T00:55:35.686Z,75.10
2022-10-31T00:58:03.509Z,75.50
2022-10-31T01:00:31.204Z,75.50
2022-10-31T01:03:00.163Z,75.60
2022-10-31T01:05:27.735Z,75.90
2022-10-31T01:07:54.996Z,75.20
2022-10-31T01:10:22.390Z,75.50
2022-10-31T01:12:51.231Z,75.40
2022-10-31T01:15:20.892Z,75.40
2022-10-31T01:17:48.847Z,75.50
2022-10-31T01:20:18.448Z,74.60
2022-10-31T01:22:46.016Z,74.60
2022-10-31T01:25:13.551Z,74.30
2022-10-31T01:27:40.863Z,74.90
2022-10-31T01:30:09.156Z,75.20
2022-10-31T01:32:36.435Z,74.70
2022-10-31T01:35:04.120Z,75.00
2022-10-31T01:37:33.073Z,75.00
2022-10-31T01:40:00.365Z,75.20
2022-10-31T01:42:27.619Z,75.70
2022-10-31T01:45:00.253Z,75.60
2022-10-31T01:47:41.282Z,75.40
2022-10-31T01:50:21.070Z,75.10
2022-10-31T01:52:52.565Z,75.80
2022-10-31T01:55:26.418Z,75.80
2022-10-31T01:58:00.903Z,75.60
2022-10-31T02:00:28.757Z,76.10
2022-10-31T02:02:57.221Z,74.70
2022-10-31T02:05:29.206Z,74.80
2022-10-31T02:08:01.084Z,76.10
2022-10-31T02:10:32.432Z,76.20
2022-10-31T02:13:03.741Z,75.30
2022-10-31T02:15:32.784Z,75.90
2022-10-31T02:18:01.170Z,75.80
2022-10-31T02:20:33.446Z,76.20
2022-10-31T02:23:32.006Z,76.50
2022-10-31T02:26:26.000Z,76.70
2022-10-31T02:29:24.323Z,76.80
2022-10-31T02:31:59.948Z,76.70
2022-10-31T02:34:35.477Z,76.60
2022-10-31T02:37:09.691Z,76.10
2022-10-31T02:39:43.618Z,76.40
2022-10-31T02:42:18.384Z,77.10
2022-10-31T02:44:52.048Z,77.10
2022-10-31T02:47:26.447Z,77.60
2022-10-31T02:49:58.393Z,77.30
2022-10-31T02:52:27.876Z,76.80
2022-10-31T02:55:11.113Z,77.30
2022-10-31T02:57:40.824Z,76.40
2022-10-31T03:00:10.133Z,76.60
2022-10-31T03:03:02.130Z,76.20
2022-10-31T03:05:47.136Z,76.40
2022-10-31T03:08:23.200Z,76.70
2022-10-31T03:10:57.112Z,76.90
2022-10-31T03:13:35.246Z,76.90
2022-10-31T03:16:09.720Z,77.40
2022-10-31T03:18:42.050Z,77.50
2022-10-31T03:21:14.436Z,77.30
2022-10-31T03:23:44.646Z,77.10
2022-10-31T03:26:22.157Z,76.90
2022-10-31T03:28:54.207Z,77.10
2022-10-31T03:31:26.366Z,77.20
2022-10-31T03:33:57.672Z,76.80
2022-10-31T03:36:26.999Z,76.60
2022-10-31T03:38:55.196Z,76.80
2022-10-31T03:41:26.107Z,77.10
2022-10-31T03:43:58.011Z,77.50
2022-10-31T03:46:26.497Z,76.90
2022-10-31T03:48:58.620Z,76.90
2022-10-31T03:51:31.878Z,77.20
2022-10-31T03:54:05.185Z,77.00
2022-10-31T03:56:36.367Z,77.10
2022-10-31T03:59:08.513Z,77.10
2022-10-31T04:01:41.012Z,77.20
2022-10-31T04:04:11.649Z,77.10
2022-10-31T04:06:41.599Z,76.80
2022-10-31T04:09:10.711Z,77.10
2022-10-31T04:11:43.064Z,77.30
2022-10-31T04:14:37.698Z,77.10
2022-10-31T04:17:08.623Z,77.40
2022-10-31T04:19:41.258Z,77.20
2022-10-31T04:22:09.058Z,77.80
2022-10-31T04:24:38.450Z,77.70
2022-10-31T04:27:05.794Z,77.40
2022-10-31T04:29:33.425Z,77.60
2022-10-31T04:32:00.678Z,77.50
2022-10-31T04:34:31.154Z,77.30
2022-10-31T04:36:59.744Z,77.60
2022-10-31T04:39:27.010Z,77.40
2022-10-31T04:42:14.295Z,77.20
2022-10-31T04:44:41.656Z,77.10
2022-10-31T04:47:09.331Z,77.10
2022-10-31T04:49:37.487Z,77.00
2022-10-31T04:52:06.298Z,77.20
2022-10-31T04:54:34.165Z,76.80
2022-10-31T04:57:19.875Z,76.80
2022-10-31T04:59:47.811Z,77.30
2022-10-31T05:02:15.261Z,77.20
2022-10-31T05:04:52.848Z,77.00
2022-10-31T05:07:21.450Z,76.70
2022-10-31T05:09:48.709Z,77.20
2022-10-31T05:12:15.949Z,76.60
2022-10-31T05:15:09.660Z,77.00
2022-10-31T05:18:09.614Z,76.30
2022-10-31T05:20:59.976Z,76.80
2022-10-31T05:23:36.821Z,76.70
2022-10-31T05:26:06.410Z,76.90
2022-10-31T05:28:34.648Z,77.10
2022-10-31T05:31:03.605Z,76.70
2022-10-31T05:33:31.861Z,77.40
2022-10-31T05:36:17.713Z,77.10
2022-10-31T05:38:59.514Z,77.10
2022-10-31T05:41:32.219Z,77.40
2022-10-31T05:44:10.283Z,77.40
2022-10-31T05:46:52.834Z,77.60
2022-10-31T05:49:38.843Z,77.60
2022-10-31T05:52:44.450Z,77.60
2022-10-31T05:55:29.945Z,77.40
2022-10-31T05:58:29.253Z,77.40
2022-10-31T06:01:04.171Z,77.70
2022-10-31T06:03:31.558Z,77.80
2022-10-31T06:06:01.009Z,77.70
2022-10-31T06:08:33.987Z,78.20
2022-10-31T06:11:07.228Z,77.60
2022-10-31T06:13:54.745Z,77.40
2022-10-31T06:16:26.394Z,77.40
2022-10-31T06:18:56.861Z,77.20
2022-10-31T06:21:24.395Z,77.50
2022-10-31T06:23:52.304Z,77.30
2022-10-31T06:26:41.213Z,77.00
2022-10-31T06:29:09.298Z,77.20
2022-10-31T06:31:57.339Z,77.50
2022-10-31T06:34:24.631Z,77.60
2022-10-31T06:36:51.914Z,77.60
2022-10-31T06:39:23.300Z,77.50
2022-10-31T06:41:52.019Z,78.10
2022-10-31T06:44:21.838Z,78.00
2022-10-31T06:46:55.027Z,78.50
2022-10-31T06:49:37.119Z,78.40
2022-10-31T06:52:13.448Z,77.30
2022-10-31T06:54:40.683Z,77.90
2022-10-31T06:57:09.587Z,77.80
2022-10-31T06:59:38.760Z,77.70
2022-10-31T07:02:24.802Z,78.00
2022-10-31T07:04:52.679Z,78.90
2022-10-31T07:07:22.165Z,78.10
2022-10-31T07:09:49.533Z,78.80
2022-10-31T07:12:21.382Z,78.60
2022-10-31T07:14:57.149Z,78.20
2022-10-31T07:17:29.707Z,77.70
2022-10-31T07:19:59.196Z,78.50
2022-10-31T07:22:33.552Z,78.90
2022-10-31T07:25:01.052Z,78.60
2022-10-31T07:27:49.981Z,78.90
2022-10-31T07:30:19.989Z,78.60
2022-10-31T07:32:52.107Z,78.60
2022-10-31T07:35:22.656Z,78.70
2022-10-31T07:37:57.051Z,78.00
2022-10-31T07:40:25.394Z,78.00
2022-10-31T07:42:54.886Z,77.90
2022-10-31T07:45:52.179Z,77.60
2022-10-31T07:48:48.449Z,77.00
2022-10-31T07:51:50.830Z,76.60
2022-10-31T07:54:41.248Z,76.30
2022-10-31T07:57:10.050Z,74.90
2022-10-31T07:59:40.178Z,75.10
2022-10-31T08:02:09.485Z,73.90
2022-10-31T08:04:49.074Z,72.50
2022-10-31T08:07:45.202Z,72.10
2022-10-31T08:10:18.709Z,71.50
2022-10-31T08:12:46.179Z,70.80
2022-10-31T08:15:15.227Z,69.90
2022-10-31T08:17:42.539Z,69.20
2022-10-31T08:20:11.562Z,68.70
2022-10-31T08:22:57.165Z,68.70
2022-10-31T08:25:25.319Z,68.50
2022-10-31T08:27:54.830Z,68.30
2022-10-31T08:30:26.202Z,68.10
2022-10-31T08:33:15.339Z,68.20
2022-10-31T08:36:01.209Z,68.10
2022-10-31T08:38:50.290Z,67.90
2022-10-31T08:41:18.469Z,68.10
2022-10-31T08:43:45.886Z,68.30
2022-10-31T08:46:15.290Z,68.60
2022-10-31T08:48:44.372Z,68.70
2022-10-31T08:51:12.203Z,68.80
2022-10-31T08:53:39.603Z,69.20
2022-10-31T08:56:36.174Z,69.20
2022-10-31T08:59:09.479Z,69.00
2022-10-31T09:02:08.567Z,69.20
2022-10-31T09:04:36.665Z,68.80
2022-10-31T09:07:20.956Z,68.40
2022-10-31T09:09:49.022Z,68.40
2022-10-31T09:12:17.599Z,67.50
2022-10-31T09:15:08.303Z,67.30
2022-10-31T09:17:49.001Z,66.60
2022-10-31T09:20:38.020Z,66.40
2022-10-31T09:23:06.958Z,63.90
2022-10-31T09:25:37.407Z,65.10
2022-10-31T09:28:24.726Z,64.40
2022-10-31T09:30:54.506Z,64.20
2022-10-31T09:33:56.053Z,64.30
2022-10-31T09:36:45.126Z,62.80
2022-10-31T09:39:15.536Z,62.90
2022-10-31T09:41:57.785Z,61.90
2022-10-31T09:44:34.195Z,61.70
2022-10-31T09:47:08.789Z,61.30
2022-10-31T09:49:56.393Z,61.00
2022-10-31T09:52:29.165Z,60.50
2022-10-31T09:55:03.180Z,59.80
2022-10-31T09:57:35.144Z,58.90
2022-10-31T10:00:06.948Z,58.50
2022-10-31T10:02:47.582Z,57.90
2022-10-31T10:05:22.144Z,57.30
2022-10-31T10:08:00.728Z,57.50
2022-10-31T10:10:56.122Z,57.50
2022-10-31T10:13:49.176Z,56.80
2022-10-31T10:16:34.349Z,58.20
2022-10-31T10:19:22.914Z,58.00
2022-10-31T10:21:57.824Z,58.20
2022-10-31T10:24:38.924Z,58.00
2022-10-31T10:27:17.938Z,57.70
2022-10-31T10:29:53.803Z,57.80
2022-10-31T10:32:25.086Z,57.70
2022-10-31T10:34:55.675Z,57.70
2022-10-31T10:37:30.984Z,57.10
2022-10-31T10:40:04.598Z,57.30
2022-10-31T10:42:50.784Z,57.60
2022-10-31T10:45:38.732Z,57.80
2022-10-31T10:48:17.628Z,58.00
2022-10-31T10:50:49.934Z,57.60
2022-10-31T10:53:36.128Z,57.70
2022-10-31T10:56:16.411Z,57.80
2022-10-31T10:58:44.108Z,57.20
2022-10-31T11:03:46.838Z,57.10
2022-10-31T11:06:22.971Z,56.60
2022-10-31T11:08:51.683Z,55.70
2022-10-31T11:11:26.751Z,56.40
2022-10-31T11:14:00.268Z,56.10
2022-10-31T11:16:39.550Z,56.00
2022-10-31T11:19:15.983Z,56.00
2022-10-31T11:21:49.819Z,55.20
2022-10-31T11:24:24.613Z,54.80
2022-10-31T11:26:52.807Z,53.70
2022-10-31T11:29:22.590Z,54.00
2022-10-31T11:31:53.152Z,54.50
2022-10-31T11:34:29.803Z,55.20
2022-10-31T11:37:10.567Z,55.40
2022-10-31T11:39:43.686Z,54.60
2022-10-31T11:42:11.363Z,53.80
2022-10-31T11:44:43.304Z,54.20
2022-10-31T11:47:16.038Z,54.70
2022-10-31T11:49:44.860Z,55.10
2022-10-31T11:52:17.204Z,54.30
2022-10-31T11:54:50.583Z,53.50
2022-10-31T11:57:29.631Z,52.20
2022-10-31T11:59:59.100Z,53.10
2022-10-31T12:02:27.349Z,53.40
2022-10-31T12:05:05.282Z,53.40
2022-10-31T12:07:32.754Z,52.90
2022-10-31T12:10:01.420Z,53.50
2022-10-31T12:12:42.522Z,53.60
2022-10-31T12:15:27.157Z,53.50
2022-10-31T12:18:04.458Z,52.20
2022-10-31T12:20:45.250Z,51.20
2022-10-31T12:23:28.300Z,51.80
2022-10-31T12:26:09.167Z,52.00
2022-10-31T12:28:55.181Z,51.70
2022-10-31T12:31:44.887Z,51.40
2022-10-31T12:34:44.813Z,51.00
2022-10-31T12:37:26.619Z,51.30
2022-10-31T12:40:05.075Z,51.00
2022-10-31T12:42:45.313Z,49.40
2022-10-31T12:45:37.845Z,48.00
2022-10-31T12:48:18.183Z,48.70
2022-10-31T12:51:01.650Z,49.00
2022-10-31T12:53:41.228Z,49.00
2022-10-31T12:56:24.636Z,48.20
2022-10-31T12:58:57.528Z,47.60
2022-10-31T13:01:29.474Z,47.20
2022-10-31T13:04:03.576Z,48.20
2022-10-31T13:06:39.515Z,48.20
2022-10-31T13:09:14.521Z,49.50
2022-10-31T13:11:45.064Z,49.00
2022-10-31T13:14:22.143Z,48.40
2022-10-31T13:16:49.812Z,49.40
2022-10-31T13:19:19.980Z,48.90
2022-10-31T13:21:58.538Z,48.90
2022-10-31T13:24:42.240Z,48.40
2022-10-31T13:27:16.511Z,48.40
2022-10-31T13:29:56.423Z,48.60
2022-10-31T13:32:24.386Z,47.90
2022-10-31T13:34:56.228Z,48.80
2022-10-31T13:37:32.054Z,47.90
2022-10-31T13:40:22.193Z,48.90
2022-10-31T13:42:57.246Z,48.50
2022-10-31T13:45:27.153Z,49.30
2022-10-31T13:48:00.241Z,48.70
2022-10-31T13:50:29.613Z,49.60
2022-10-31T13:53:14.200Z,48.80
2022-10-31T13:55:43.559Z,49.30
2022-10-31T13:58:26.782Z,48.30
2022-10-31T14:01:16.283Z,48.90
2022-10-31T14:06:43.651Z,48.90
2022-10-31T14:09:27.998Z,49.90
2022-10-31T14:11:56.949Z,50.40
2022-10-31T14:14:31.019Z,50.20
2022-10-31T14:17:00.408Z,50.10
2022-10-31T14:19:28.225Z,51.10
2022-10-31T14:21:55.568Z,50.20
2022-10-31T14:24:35.065Z,50.60
2022-10-31T14:27:04.791Z,51.70
2022-10-31T14:29:33.093Z,51.10
2022-10-31T14:32:13.346Z,51.50
2022-10-31T14:34:43.044Z,52.60
2022-10-31T14:37:35.608Z,52.70
2022-10-31T14:40:32.543Z,53.10
2022-10-31T14:43:26.454Z,52.90
2022-10-31T14:46:00.234Z,53.20
2022-10-31T14:48:51.928Z,53.60
2022-10-31T14:51:22.417Z,54.60
2022-10-31T14:53:51.751Z,55.00
2022-10-31T14:56:25.872Z,55.50
2022-10-31T14:58:55.213Z,55.80
2022-10-31T15:01:26.134Z,55.80
2022-10-31T15:06:49.240Z,56.70
2022-10-31T15:09:24.430Z,57.30
2022-10-31T15:11:51.934Z,57.50
2022-10-31T15:14:24.539Z,57.70
2022-10-31T15:16:52.778Z,58.00
2022-10-31T15:19:25.321Z,58.30
2022-10-31T15:21:54.503Z,58.70
2022-10-31T15:24:23.853Z,59.10
2022-10-31T15:26:53.331Z,59.40
2022-10-31T15:29:23.556Z,59.40
2022-10-31T15:31:52.091Z,59.70
2022-10-31T15:34:27.296Z,60.00
2022-10-31T15:36:54.630Z,60.30
2022-10-31T15:39:22.074Z,60.50
2022-10-31T15:41:54.812Z,60.80
2022-10-31T15:44:26.580Z,61.00
2022-10-31T15:46:56.748Z,61.50
2022-10-31T15:49:37.663Z,61.60
2022-10-31T15:52:15.125Z,61.90
2022-10-31T15:54:48.288Z,62.10
2022-10-31T15:57:16.278Z,62.60
2022-10-31T15:59:48.408Z,62.60
2022-10-31T16:02:20.308Z,62.70
2022-10-31T16:04:54.910Z,63.00
2022-10-31T16:07:23.857Z,63.30
2022-10-31T16:09:53.597Z,63.80
2022-10-31T16:12:22.759Z,63.30
2022-10-31T16:14:51.843Z,63.80
2022-10-31T16:17:23.035Z,64.20
2022-10-31T16:19:55.259Z,63.80
2022-10-31T16:22:26.230Z,64.20
2022-10-31T16:25:00.548Z,65.10
2022-10-31T16:27:31.197Z,64.50
2022-10-31T16:30:02.418Z,64.60
2022-10-31T16:32:32.996Z,65.00
2022-10-31T16:35:16.792Z,64.80
2022-10-31T16:37:44.862Z,65.20
2022-10-31T16:40:16.184Z,66.20
2022-10-31T16:42:44.396Z,66.40
2022-10-31T16:45:17.700Z,66.20
2022-10-31T16:47:45.216Z,66.20
2022-10-31T16:50:20.240Z,66.30
2022-10-31T16:55:36.226Z,66.30
2022-10-31T16:58:03.984Z,66.50
2022-10-31T17:00:31.722Z,66.40
2022-10-31T17:02:58.992Z,66.40
2022-10-31T17:05:30.794Z,67.00
2022-10-31T17:07:58.698Z,66.90
2022-10-31T17:10:27.376Z,67.70
2022-10-31T17:12:55.394Z,67.30
2022-10-31T17:15:25.837Z,67.00
2022-10-31T17:17:53.658Z,67.20
2022-10-31T17:20:23.243Z,67.40
2022-10-31T17:22:52.174Z,67.70
2022-10-31T17:25:22.685Z,68.30
2022-10-31T17:27:50.091Z,68.10
2022-10-31T17:30:18.749Z,68.20
2022-10-31T17:32:47.615Z,68.30
2022-10-31T17:35:16.671Z,68.40
2022-10-31T17:37:45.035Z,68.20
2022-10-31T17:40:15.384Z,68.50
2022-10-31T17:42:43.277Z,68.90
2022-10-31T17:45:13.207Z,69.10
2022-10-31T17:47:40.423Z,69.30
2022-10-31T17:50:08.696Z,69.20
2022-10-31T17:52:35.962Z,68.90
2022-10-31T17:55:03.530Z,69.40
2022-10-31T17:57:35.128Z,69.20
2022-10-31T18:00:04.939Z,70.00
2022-10-31T18:02:33.478Z,69.70
2022-10-31T18:05:02.480Z,70.20
2022-10-31T18:07:29.931Z,69.60
2022-10-31T18:09:57.184Z,70.00
2022-10-31T18:12:25.324Z,70.00
2022-10-31T18:14:54.100Z,70.30
2022-10-31T18:17:21.914Z,70.40
2022-10-31T18:19:49.227Z,70.50
2022-10-31T18:22:16.504Z,70.30
2022-10-31T18:24:43.771Z,70.40
2022-10-31T18:27:11.087Z,70.40
2022-10-31T18:29:38.404Z,70.10
2022-10-31T18:32:09.470Z,69.90
2022-10-31T18:34:37.117Z,70.60
2022-10-31T18:37:04.408Z,70.90
2022-10-31T18:39:31.745Z,71.00
2022-10-31T18:41:59.059Z,70.70
2022-10-31T18:44:27.774Z,70.90
2022-10-31T18:46:55.087Z,70.70
2022-10-31T18:49:23.941Z,70.90
2022-10-31T18:51:51.803Z,70.50
2022-10-31T18:54:19.991Z,71.00
2022-10-31T18:56:47.414Z,70.80
2022-10-31T18:59:15.339Z,71.00
2022-10-31T19:01:42.865Z,71.70
2022-10-31T19:04:11.017Z,71.60
2022-10-31T19:06:39.620Z,71.30
2022-10-31T19:09:09.655Z,71.20
2022-10-31T19:11:38.075Z,71.50
2022-10-31T19:14:08.283Z,71.40
2022-10-31T19:16:35.680Z,71.20
2022-10-31T19:19:03.282Z,71.60
2022-10-31T19:21:32.279Z,72.10
2022-10-31T19:24:01.313Z,71.50
2022-10-31T19:26:29.231Z,71.80
2022-10-31T19:28:56.640Z,72.00
2022-10-31T19:31:24.214Z,71.60
2022-10-31T19:33:51.612Z,72.20
2022-10-31T19:36:20.271Z,72.70
2022-10-31T19:38:50.616Z,71.90
2022-10-31T19:41:20.926Z,72.80
2022-10-31T19:43:48.762Z,73.30
2022-10-31T19:46:27.776Z,73.70
2022-10-31T19:49:05.581Z,73.20
2022-10-31T19:51:32.845Z,72.80
2022-10-31T19:54:00.137Z,73.40
2022-10-31T19:56:28.778Z,72.80
2022-10-31T19:58:59.555Z,73.50
2022-10-31T20:13:46.216Z,71.60
2022-10-31T20:16:14.915Z,72.80
2022-10-31T20:18:43.030Z,73.60
2022-10-31T20:21:14.882Z,73.40
2022-10-31T20:23:42.916Z,73.80
2022-10-31T20:26:12.831Z,73.80
2022-10-31T20:28:43.342Z,74.10
2022-10-31T20:31:12.658Z,74.30
2022-10-31T20:33:40.264Z,74.80
2022-10-31T20:36:08.622Z,75.30
2022-10-31T20:38:40.327Z,74.30
2022-10-31T20:41:09.714Z,75.00
2022-10-31T20:43:37.531Z,74.90
2022-10-31T20:46:06.382Z,75.00
2022-10-31T20:48:34.030Z,75.70
2022-10-31T20:51:03.338Z,75.50
2022-10-31T20:53:31.096Z,75.60
2022-10-31T20:56:07.035Z,75.70
2022-10-31T20:58:35.403Z,75.50
2022-10-31T21:01:02.952Z,75.00
2022-10-31T21:03:30.562Z,75.10
2022-10-31T21:05:59.288Z,74.90
2022-10-31T21:08:28.659Z,74.60
2022-10-31T21:10:56.343Z,75.20
2022-10-31T21:13:25.155Z,75.30
2022-10-31T21:16:00.365Z,75.20
2022-10-31T21:18:28.242Z,74.90
2022-10-31T21:20:55.783Z,75.50
2022-10-31T21:23:23.317Z,75.80
2022-10-31T21:25:50.630Z,75.60
2022-10-31T21:28:18.032Z,75.30
2022-10-31T21:30:49.636Z,75.90
2022-10-31T21:33:16.979Z,75.70
2022-10-31T21:35:49.493Z,75.70
2022-10-31T21:38:17.193Z,75.50
2022-10-31T21:40:45.077Z,75.60
2022-10-31T21:43:12.357Z,75.60
2022-10-31T21:45:39.677Z,75.80
2022-10-31T21:48:08.274Z,76.90
2022-10-31T21:50:35.719Z,76.50
2022-10-31T21:53:22.941Z,76.90
2022-10-31T21:55:50.173Z,76.90
2022-10-31T21:58:17.414Z,77.30
2022-10-31T22:00:44.749Z,77.50
2022-10-31T22:03:13.337Z,77.90
2022-10-31T22:05:40.586Z,77.70
2022-10-31T22:08:07.843Z,77.30
2022-10-31T22:10:35.119Z,78.00
2022-10-31T22:13:02.351Z,78.20
2022-10-31T22:15:29.596Z,78.30
2022-10-31T22:17:56.836Z,78.00
2022-10-31T22:20:26.192Z,77.80
2022-10-31T22:22:53.540Z,77.20
2022-10-31T22:25:20.799Z,77.80
2022-10-31T22:27:48.027Z,77.60
2022-10-31T22:30:15.373Z,77.90
2022-10-31T22:32:42.648Z,77.10
2022-10-31T22:35:09.956Z,77.10
2022-10-31T22:37:38.597Z,76.40
2022-10-31T22:40:07.230Z,76.10
2022-10-31T22:42:34.481Z,76.10
2022-10-31T22:45:02.828Z,77.70
2022-10-31T22:47:30.146Z,77.90
2022-10-31T22:49:57.421Z,78.50
2022-10-31T22:52:24.777Z,78.50
2022-10-31T22:54:56.874Z,78.90
2022-10-31T22:57:26.436Z,78.70
2022-10-31T22:59:53.719Z,78.40
2022-10-31T23:02:21.087Z,78.00
2022-10-31T23:04:48.468Z,78.00
2022-10-31T23:07:17.163Z,78.60
2022-10-31T23:09:46.297Z,78.90
2022-10-31T23:12:33.513Z,78.90
2022-10-31T23:15:00.746Z,78.40
2022-10-31T23:17:28.257Z,78.10
2022-10-31T23:19:55.494Z,78.60
2022-10-31T23:22:22.735Z,78.90
2022-10-31T23:24:50.041Z,78.80
2022-10-31T23:27:21.138Z,79.00
2022-10-31T23:29:50.791Z,78.90
2022-10-31T23:32:20.577Z,78.70
2022-10-31T23:34:49.615Z,79.20
2022-10-31T23:37:18.864Z,79.20
2022-10-31T23:39:46.426Z,79.00
2022-10-31T23:42:14.345Z,78.80
2022-10-31T23:44:43.066Z,78.80
2022-10-31T23:47:11.076Z,78.90
2022-10-31T23:49:38.705Z,79.00
2022-10-31T23:52:06.808Z,79.30
2022-10-31T23:54:34.223Z,79.00
2022-10-31T23:57:02.039Z,79.00
2022-10-31T23:59:33.052Z,79.00
